Time;durP1;ratioP1;P1;durP2;ratioP2;P2;SDS_P1;SDS_P2;PMS_P1;PMS_P2;Temp;Humidity;BMP_temperature;BMP_pressure;BME280_temperature;BME280_humidity;BME280_pressure;Samples;Min_cycle;Max_cycle;Signal;HPM_P1;HPM_P2
2023/02/25 00:01:12;;;;;;;2.13;1.10;;;;;;;-142.37;100.00;59669.53;5091649;28;20137;-61
2023/02/25 00:03:39;;;;;;;5.77;2.10;;;;;;;-142.37;100.00;59669.53;5093270;28;20024;-59
2023/02/25 00:06:07;;;;;;;5.17;1.77;;;;;;;-142.37;100.00;59669.53;5091705;28;20028;-58
2023/02/25 00:08:33;;;;;;;5.63;1.47;;;;;;;-142.37;100.00;59669.53;5091942;28;20108;-59
2023/02/25 00:11:03;;;;;;;2.87;1.10;;;;;;;-142.37;100.00;59669.53;5091571;28;20027;-60
2023/02/25 00:13:29;;;;;;;6.40;2.00;;;;;;;-142.37;100.00;59669.53;5093307;28;20024;-61
2023/02/25 00:15:59;;;;;;;7.47;2.27;;;;;;;-142.37;100.00;59669.53;5091851;28;20028;-62
2023/02/25 00:18:25;;;;;;;5.07;1.60;;;;;;;-142.37;100.00;59669.53;5093262;28;20051;-60
2023/02/25 00:20:51;;;;;;;5.90;1.53;;;;;;;-142.37;100.00;59669.53;5091615;28;20031;-59
2023/02/25 00:23:17;;;;;;;4.73;1.57;;;;;;;-142.37;100.00;59669.53;5092893;28;20025;-60
2023/02/25 00:25:44;;;;;;;7.20;2.00;;;;;;;-142.37;100.00;59669.53;5093334;28;20032;-59
2023/02/25 00:28:10;;;;;;;4.50;1.50;;;;;;;-142.37;100.00;59669.53;5092912;28;20477;-63
2023/02/25 00:30:37;;;;;;;4.40;1.63;;;;;;;-142.37;100.00;59669.53;5091796;28;20028;-60
2023/02/25 00:33:05;;;;;;;6.20;2.03;;;;;;;-142.37;100.00;59669.53;5092602;28;20040;-59
2023/02/25 00:35:31;;;;;;;6.03;2.00;;;;;;;-142.37;100.00;59669.53;5092739;28;20016;-59
2023/02/25 00:37:57;;;;;;;3.90;1.70;;;;;;;-142.37;100.00;59669.53;5092825;28;20546;-60
2023/02/25 00:40:23;;;;;;;7.03;1.80;;;;;;;-142.37;100.00;59669.53;5092835;28;20028;-61
2023/02/25 00:42:49;;;;;;;5.47;1.70;;;;;;;-142.37;100.00;59669.53;5092683;28;20028;-60
2023/02/25 00:45:15;;;;;;;4.00;1.90;;;;;;;-142.37;100.00;59669.53;5091139;28;20024;-59
2023/02/25 00:47:40;;;;;;;3.73;1.30;;;;;;;-142.37;100.00;59669.53;5092606;28;20153;-58
2023/02/25 00:50:08;;;;;;;5.90;1.80;;;;;;;-142.37;100.00;59669.53;5093542;28;20496;-59
2023/02/25 00:52:36;;;;;;;5.87;1.93;;;;;;;-142.37;100.00;59669.53;5091394;28;20043;-60
2023/02/25 00:55:03;;;;;;;3.30;2.10;;;;;;;-142.37;100.00;59669.53;5090937;28;20081;-59
2023/02/25 00:57:29;;;;;;;8.23;2.20;;;;;;;-142.37;100.00;59669.53;5091385;28;20066;-60
2023/02/25 00:59:55;;;;;;;4.70;2.20;;;;;;;-142.37;100.00;59669.53;5091174;28;20036;-60
2023/02/25 01:02:20;;;;;;;7.57;2.97;;;;;;;-142.37;100.00;59669.53;5090931;28;20028;-59
2023/02/25 01:04:46;;;;;;;4.93;2.23;;;;;;;-142.37;100.00;59669.53;5096403;28;20111;-60
2023/02/25 01:07:12;;;;;;;4.53;1.80;;;;;;;-142.37;100.00;59669.53;5097167;28;20119;-60
2023/02/25 01:09:37;;;;;;;4.83;2.57;;;;;;;-142.37;100.00;59669.53;5095531;28;20058;-60
2023/02/25 01:12:03;;;;;;;9.43;2.70;;;;;;;-142.37;100.00;59669.53;5096711;28;20040;-61
2023/02/25 01:14:29;;;;;;;5.28;2.05;;;;;;;-142.37;100.00;59669.53;5095191;28;20016;-61
2023/02/25 01:16:56;;;;;;;6.73;2.73;;;;;;;-142.37;100.00;59669.53;5094966;28;20072;-66
2023/02/25 01:19:24;;;;;;;6.77;2.70;;;;;;;-142.37;100.00;59669.53;5096722;28;20024;-60
2023/02/25 01:21:52;;;;;;;7.87;2.10;;;;;;;-142.37;100.00;59669.53;5095774;28;20059;-61
2023/02/25 01:24:21;;;;;;;9.60;3.57;;;;;;;-142.37;100.00;59669.53;5096925;28;20032;-60
2023/02/25 01:26:49;;;;;;;7.03;2.70;;;;;;;-142.37;100.00;59669.53;5095661;28;20054;-61
2023/02/25 01:29:17;;;;;;;7.10;2.47;;;;;;;-142.37;100.00;59669.53;5096573;28;20031;-60
2023/02/25 01:31:44;;;;;;;10.23;4.40;;;;;;;-142.37;100.00;59669.53;5096330;28;20043;-62
2023/02/25 01:34:13;;;;;;;7.47;3.30;;;;;;;-142.37;100.00;59669.53;5096122;28;20109;-61
2023/02/25 01:36:40;;;;;;;7.23;4.00;;;;;;;-142.37;100.00;59669.53;5095409;28;20028;-60
2023/02/25 01:39:06;;;;;;;11.60;3.57;;;;;;;-142.37;100.00;59669.53;5097456;28;20056;-66
2023/02/25 01:41:34;;;;;;;4.23;2.00;;;;;;;-142.37;100.00;59669.53;5096291;28;20028;-62
2023/02/25 01:44:20;;;;;;;7.80;3.47;;;;;;;-142.37;100.00;59669.53;5095192;28;20484;-59
2023/02/25 01:46:49;;;;;;;11.43;5.00;;;;;;;-142.37;100.00;59669.53;5096678;28;20495;-59
2023/02/25 01:49:40;;;;;;;12.50;3.17;;;;;;;-142.37;100.00;59669.53;5096601;28;20038;-58
2023/02/25 01:52:07;;;;;;;8.60;3.93;;;;;;;-142.37;100.00;59669.53;5085517;28;20484;-59
2023/02/25 01:54:34;;;;;;;10.90;4.53;;;;;;;-142.37;100.00;59669.53;5094580;28;20075;-59
2023/02/25 01:57:00;;;;;;;6.37;3.57;;;;;;;-142.37;100.00;59669.53;5095705;28;20073;-60
2023/02/25 01:59:27;;;;;;;8.57;3.37;;;;;;;-142.37;100.00;59669.53;5096522;28;20019;-59
2023/02/25 02:01:53;;;;;;;6.63;2.90;;;;;;;-142.37;100.00;59669.53;5095024;28;20047;-60
2023/02/25 02:04:21;;;;;;;8.47;3.73;;;;;;;-142.37;100.00;59669.53;5096530;28;20024;-59
2023/02/25 02:06:49;;;;;;;7.93;3.00;;;;;;;-142.37;100.00;59669.53;5095310;28;20024;-61
2023/02/25 02:09:21;;;;;;;7.25;4.35;;;;;;;-142.37;100.00;59669.53;5094727;28;20028;-64
2023/02/25 02:11:47;;;;;;;9.07;3.67;;;;;;;-142.37;100.00;59669.53;5095659;28;20039;-60
2023/02/25 02:14:24;;;;;;;10.30;3.53;;;;;;;-142.37;100.00;59669.53;5094024;28;20391;-62
2023/02/25 02:17:24;;;;;;;11.57;3.63;;;;;;;-142.37;100.00;59669.53;5096096;28;20089;-62
2023/02/25 02:20:19;;;;;;;8.93;3.80;;;;;;;-142.37;100.00;59669.53;5096481;28;20028;-59
2023/02/25 02:23:03;;;;;;;13.13;3.03;;;;;;;-142.37;100.00;59669.53;5094637;28;20070;-61
2023/02/25 02:25:35;;;;;;;12.60;3.20;;;;;;;-142.37;100.00;59669.53;5094416;28;20067;-61
2023/02/25 02:28:09;;;;;;;9.07;3.47;;;;;;;-142.37;100.00;59669.53;5094470;28;20089;-61
2023/02/25 02:31:06;;;;;;;8.45;3.30;;;;;;;-142.37;100.00;59669.53;5094258;28;20369;-60
2023/02/25 02:33:47;;;;;;;9.83;2.80;;;;;;;-142.37;100.00;59669.53;5095405;28;20051;-60
2023/02/25 02:36:43;;;;;;;9.70;2.65;;;;;;;-142.37;100.00;59669.53;5095788;28;20032;-59
2023/02/25 02:39:24;;;;;;;7.43;3.13;;;;;;;-142.37;100.00;59669.53;5094737;28;20024;-62
2023/02/25 02:42:22;;;;;;;6.13;2.70;;;;;;;-142.37;100.00;59669.53;5093907;28;20450;-60
2023/02/25 02:45:02;;;;;;;4.60;2.30;;;;;;;-142.37;100.00;59669.53;5095370;28;20035;-59
2023/02/25 02:47:39;;;;;;;8.77;2.67;;;;;;;-142.37;100.00;59669.53;5093659;28;20032;-61
2023/02/25 02:50:41;;;;;;;19.13;2.77;;;;;;;-142.37;100.00;59669.53;5095029;28;20052;-59
2023/02/25 02:53:15;;;;;;;20.20;3.40;;;;;;;-142.37;100.00;59669.53;5095308;28;20472;-64
2023/02/25 02:55:48;;;;;;;17.17;3.40;;;;;;;-142.37;100.00;59669.53;5094309;28;20031;-60
2023/02/25 02:58:17;;;;;;;4.73;1.13;;;;;;;-142.37;100.00;59669.53;5095776;28;20430;-59
2023/02/25 03:00:47;;;;;;;39.80;5.37;;;;;;;-142.37;100.00;59669.53;5097123;28;20113;-60
2023/02/25 03:03:21;;;;;;;7.17;2.10;;;;;;;-142.37;100.00;59669.53;5095789;28;20128;-58
2023/02/25 03:05:51;;;;;;;7.13;2.43;;;;;;;-142.37;100.00;59669.53;5097110;28;20145;-61
2023/02/25 03:08:29;;;;;;;7.13;2.60;;;;;;;-142.37;100.00;59669.53;5096710;28;20056;-59
2023/02/25 03:10:55;;;;;;;7.87;2.40;;;;;;;-142.37;100.00;59669.53;5094955;28;20103;-62
2023/02/25 03:13:21;;;;;;;4.50;2.00;;;;;;;-142.37;100.00;59669.53;5093355;28;20070;-61
2023/02/25 03:15:48;;;;;;;5.00;1.90;;;;;;;-142.37;100.00;59669.53;5094442;28;20036;-59
2023/02/25 03:18:30;;;;;;;7.27;1.80;;;;;;;-142.37;100.00;59669.53;5092673;28;20052;-58
2023/02/25 03:20:57;;;;;;;5.40;1.57;;;;;;;-142.37;100.00;59669.53;5092704;28;20031;-61
2023/02/25 03:23:29;;;;;;;5.90;1.60;;;;;;;-142.37;100.00;59669.53;5093887;28;20028;-65
2023/02/25 03:26:11;;;;;;;3.43;1.53;;;;;;;-142.37;100.00;59669.53;5093556;28;20028;-61
2023/02/25 03:28:37;;;;;;;3.53;1.20;;;;;;;-142.37;100.00;59669.53;5092751;28;20035;-58
2023/02/25 03:31:13;;;;;;;2.77;1.30;;;;;;;-142.37;100.00;59669.53;5092528;28;20058;-58
2023/02/25 03:33:59;;;;;;;3.87;0.93;;;;;;;-142.37;100.00;59669.53;5092665;28;20061;-60
2023/02/25 03:36:27;;;;;;;2.23;0.90;;;;;;;-142.37;100.00;59669.53;5092412;28;20024;-59
2023/02/25 03:38:58;;;;;;;4.90;0.70;;;;;;;-142.37;100.00;59669.53;5092324;28;20028;-63
2023/02/25 03:41:30;;;;;;;3.47;0.53;;;;;;;-142.37;100.00;59669.53;5093966;28;20032;-61
2023/02/25 03:43:58;;;;;;;2.87;0.60;;;;;;;-142.37;100.00;59669.53;5092309;28;20034;-61
2023/02/25 03:46:25;;;;;;;2.83;0.60;;;;;;;-142.37;100.00;59669.53;5093541;28;20058;-61
2023/02/25 03:48:53;;;;;;;2.67;0.60;;;;;;;-142.37;100.00;59669.53;5093834;28;20059;-58
2023/02/25 03:51:26;;;;;;;3.13;0.40;;;;;;;-142.37;100.00;59669.53;5092217;28;20495;-60
2023/02/25 03:53:51;;;;;;;2.05;0.68;;;;;;;-142.37;100.00;59669.53;5093727;28;20078;-59
2023/02/25 03:56:17;;;;;;;2.17;0.53;;;;;;;-142.37;100.00;59669.53;5092366;28;20051;-59
2023/02/25 03:58:43;;;;;;;1.97;0.60;;;;;;;-142.37;100.00;59669.53;5092163;28;20043;-58
2023/02/25 04:01:15;;;;;;;3.65;0.60;;;;;;;-142.37;100.00;59669.53;5093634;28;20497;-59
2023/02/25 04:03:41;;;;;;;3.73;0.20;;;;;;;-142.37;100.00;59669.53;5093574;28;20020;-57
2023/02/25 04:06:06;;;;;;;3.50;0.32;;;;;;;-142.37;100.00;59669.53;5092140;28;20027;-59
2023/02/25 04:08:32;;;;;;;7.57;0.47;;;;;;;-142.37;100.00;59669.53;5092153;28;20039;-58
2023/02/25 04:10:57;;;;;;;5.30;1.00;;;;;;;-142.37;100.00;59669.53;5091663;28;20434;-60
2023/02/25 04:13:23;;;;;;;2.90;0.45;;;;;;;-142.37;100.00;59669.53;5091619;28;20055;-59
2023/02/25 04:15:49;;;;;;;1.67;0.22;;;;;;;-142.37;100.00;59669.53;5093687;28;20031;-58
2023/02/25 04:18:15;;;;;;;4.13;0.30;;;;;;;-142.37;100.00;59669.53;5096227;28;20472;-59
2023/02/25 04:20:41;;;;;;;2.67;0.25;;;;;;;-142.37;100.00;59669.53;5095851;28;20024;-63
2023/02/25 04:23:10;;;;;;;3.10;0.40;;;;;;;-142.37;100.00;59669.53;5094239;28;20423;-57
2023/02/25 04:25:36;;;;;;;0.68;0.20;;;;;;;-142.37;100.00;59669.53;5096173;28;20030;-59
2023/02/25 04:28:02;;;;;;;1.52;0.10;;;;;;;-142.37;100.00;59669.53;5095320;28;20103;-59
2023/02/25 04:30:27;;;;;;;3.58;0.50;;;;;;;-142.37;100.00;59669.53;5091592;28;20028;-59
2023/02/25 04:32:53;;;;;;;2.00;0.30;;;;;;;-142.37;100.00;59669.53;5092720;28;20072;-59
2023/02/25 04:35:19;;;;;;;1.25;0.32;;;;;;;-142.37;100.00;59669.53;5091385;28;20471;-60
2023/02/25 04:37:44;;;;;;;2.15;0.20;;;;;;;-142.37;100.00;59669.53;5090777;28;20036;-60
2023/02/25 04:40:16;;;;;;;0.65;0.10;;;;;;;-142.37;100.00;59669.53;5091314;28;20028;-61
2023/02/25 04:42:42;;;;;;;2.47;0.73;;;;;;;-142.37;100.00;59669.53;5091492;28;20498;-58
2023/02/25 04:45:10;;;;;;;5.30;1.40;;;;;;;-142.37;100.00;59669.53;5091078;28;20069;-57
2023/02/25 04:47:36;;;;;;;2.40;0.10;;;;;;;-142.37;100.00;59669.53;5092845;28;20020;-59
2023/02/25 04:50:03;;;;;;;1.40;0.20;;;;;;;-142.37;100.00;59669.53;5091715;28;20066;-58
2023/02/25 04:52:28;;;;;;;2.30;0.40;;;;;;;-142.37;100.00;59669.53;5092891;28;20480;-59
2023/02/25 04:54:54;;;;;;;1.48;0.30;;;;;;;-142.37;100.00;59669.53;5091528;28;20039;-59
2023/02/25 04:57:20;;;;;;;1.35;0.20;;;;;;;-142.37;100.00;59669.53;5091252;28;20542;-58
2023/02/25 04:59:46;;;;;;;1.63;0.30;;;;;;;-142.37;100.00;59669.53;5092727;28;20032;-68
2023/02/25 05:02:12;;;;;;;3.05;0.20;;;;;;;-142.37;100.00;59669.53;5092549;28;20028;-60
2023/02/25 05:04:38;;;;;;;1.95;0.52;;;;;;;-142.37;100.00;59669.53;5092797;28;20016;-59
2023/02/25 05:07:05;;;;;;;1.73;0.05;;;;;;;-142.37;100.00;59669.53;5092648;28;20039;-60
2023/02/25 05:09:31;;;;;;;9.52;0.75;;;;;;;-142.37;100.00;59669.53;5092419;28;20024;-60
2023/02/25 05:11:57;;;;;;;5.28;0.45;;;;;;;-142.37;100.00;59669.53;5092812;28;20039;-59
2023/02/25 05:14:22;;;;;;;1.85;0.30;;;;;;;-142.37;100.00;59669.53;5091158;28;20028;-58
2023/02/25 05:16:49;;;;;;;2.80;0.60;;;;;;;-142.37;100.00;59669.53;5090995;28;20131;-59
2023/02/25 05:19:22;;;;;;;3.40;0.47;;;;;;;-142.37;100.00;59669.53;5092372;28;20095;-62
2023/02/25 05:21:52;;;;;;;3.97;0.50;;;;;;;-142.37;100.00;59669.53;5091205;28;20032;-60
2023/02/25 05:24:18;;;;;;;1.85;0.25;;;;;;;-142.37;100.00;59669.53;5092361;28;20488;-59
2023/02/25 05:26:44;;;;;;;2.00;0.40;;;;;;;-142.37;100.00;59669.53;5091225;28;20032;-60
2023/02/25 05:29:10;;;;;;;3.47;1.02;;;;;;;-142.37;100.00;59669.53;5092549;28;20028;-59
2023/02/25 05:31:36;;;;;;;3.13;0.35;;;;;;;-142.37;100.00;59669.53;5092494;28;20036;-60
2023/02/25 05:34:02;;;;;;;1.05;0.30;;;;;;;-142.37;100.00;59669.53;5091411;28;20031;-59
2023/02/25 05:36:28;;;;;;;0.85;0.20;;;;;;;-142.37;100.00;59669.53;5092584;28;20029;-60
2023/02/25 05:38:57;;;;;;;2.97;0.68;;;;;;;-142.37;100.00;59669.53;5091083;28;20381;-60
2023/02/25 05:41:24;;;;;;;1.73;0.30;;;;;;;-142.37;100.00;59669.53;5091000;28;20144;-60
2023/02/25 05:43:50;;;;;;;0.60;0.15;;;;;;;-142.37;100.00;59669.53;5092524;28;20056;-60
2023/02/25 05:46:16;;;;;;;2.58;0.22;;;;;;;-142.37;100.00;59669.53;5092025;28;20070;-61
2023/02/25 05:48:47;;;;;;;1.83;0.57;;;;;;;-142.37;100.00;59669.53;5091424;28;20028;-60
2023/02/25 05:51:15;;;;;;;4.82;0.50;;;;;;;-142.37;100.00;59669.53;5094261;28;20063;-60
2023/02/25 05:53:43;;;;;;;1.38;0.60;;;;;;;-142.37;100.00;59669.53;5095805;28;20035;-59
2023/02/25 05:56:14;;;;;;;2.60;0.30;;;;;;;-142.37;100.00;59669.53;5095774;28;20028;-60
2023/02/25 05:58:40;;;;;;;3.42;0.70;;;;;;;-142.37;100.00;59669.53;5095779;28;20020;-59
2023/02/25 06:01:12;;;;;;;3.88;0.35;;;;;;;-142.37;100.00;59669.53;5094231;28;20085;-59
2023/02/25 06:03:42;;;;;;;3.75;0.30;;;;;;;-142.37;100.00;59669.53;5094279;28;20031;-59
2023/02/25 06:06:11;;;;;;;1.48;0.20;;;;;;;-142.37;100.00;59669.53;5095760;28;20035;-61
2023/02/25 06:08:38;;;;;;;3.15;0.30;;;;;;;-142.37;100.00;59669.53;5095258;28;20481;-60
2023/02/25 06:11:07;;;;;;;1.30;0.22;;;;;;;-142.37;100.00;59669.53;5095639;28;20031;-59
2023/02/25 06:13:33;;;;;;;0.32;0.03;;;;;;;-142.37;100.00;59669.53;5094418;28;20066;-61
2023/02/25 06:16:03;;;;;;;3.33;0.20;;;;;;;-142.37;100.00;59669.53;5095789;28;20116;-60
2023/02/25 06:18:29;;;;;;;2.35;0.45;;;;;;;-142.37;100.00;59669.53;5095339;28;20510;-61
2023/02/25 06:20:54;;;;;;;4.05;0.20;;;;;;;-142.37;100.00;59669.53;5094049;28;20054;-59
2023/02/25 06:23:20;;;;;;;4.40;0.55;;;;;;;-142.37;100.00;59669.53;5093832;28;20384;-59
2023/02/25 06:25:46;;;;;;;1.00;0.20;;;;;;;-142.37;100.00;59669.53;5094454;28;20073;-59
2023/02/25 06:28:11;;;;;;;1.60;0.20;;;;;;;-142.37;100.00;59669.53;5096124;28;20165;-63
2023/02/25 06:30:41;;;;;;;3.83;0.43;;;;;;;-142.37;100.00;59669.53;5095976;28;20024;-59
2023/02/25 06:33:06;;;;;;;3.08;0.22;;;;;;;-142.37;100.00;59669.53;5093892;28;20101;-61
2023/02/25 06:35:34;;;;;;;8.48;0.43;;;;;;;-142.37;100.00;59669.53;5095119;28;20515;-60
2023/02/25 06:38:00;;;;;;;2.15;0.50;;;;;;;-142.37;100.00;59669.53;5095395;28;20395;-59
2023/02/25 06:40:27;;;;;;;4.22;0.30;;;;;;;-142.37;100.00;59669.53;5095417;28;20028;-61
2023/02/25 06:42:54;;;;;;;2.38;0.40;;;;;;;-142.37;100.00;59669.53;5096331;28;20120;-60
2023/02/25 06:45:20;;;;;;;2.03;0.35;;;;;;;-142.37;100.00;59669.53;5094793;28;20024;-61
2023/02/25 06:47:46;;;;;;;6.15;0.65;;;;;;;-142.37;100.00;59669.53;5095350;28;20039;-60
2023/02/25 06:50:12;;;;;;;3.20;0.25;;;;;;;-142.37;100.00;59669.53;5094817;28;20099;-61
2023/02/25 06:52:37;;;;;;;2.17;0.20;;;;;;;-142.37;100.00;59669.53;5094666;28;20105;-61
2023/02/25 06:55:05;;;;;;;1.67;0.10;;;;;;;-142.37;100.00;59669.53;5094784;28;20041;-61
2023/02/25 06:57:32;;;;;;;4.05;0.68;;;;;;;-142.37;100.00;59669.53;5094499;28;20027;-61
2023/02/25 06:59:58;;;;;;;3.65;0.22;;;;;;;-142.37;100.00;59669.53;5094450;28;20056;-60
2023/02/25 07:02:23;;;;;;;0.80;0.20;;;;;;;-142.37;100.00;59669.53;5093903;28;20169;-59
2023/02/25 07:04:52;;;;;;;6.68;0.30;;;;;;;-142.37;100.00;59669.53;5094718;28;20055;-60
2023/02/25 07:07:18;;;;;;;2.20;0.22;;;;;;;-142.37;100.00;59669.53;5092757;28;20024;-60
2023/02/25 07:09:44;;;;;;;3.53;0.30;;;;;;;-142.37;100.00;59669.53;5093224;28;20038;-60
2023/02/25 07:12:09;;;;;;;3.83;0.40;;;;;;;-142.37;100.00;59669.53;5094018;28;20059;-62
2023/02/25 07:14:36;;;;;;;2.15;0.30;;;;;;;-142.37;100.00;59669.53;5092721;28;20028;-59
2023/02/25 07:17:02;;;;;;;0.65;0.10;;;;;;;-142.37;100.00;59669.53;5092613;28;20060;-58
2023/02/25 07:19:28;;;;;;;2.53;0.28;;;;;;;-142.37;100.00;59669.53;5092459;28;20114;-59
2023/02/25 07:21:54;;;;;;;4.95;0.50;;;;;;;-142.37;100.00;59669.53;5092888;28;20020;-60
2023/02/25 07:24:20;;;;;;;5.68;0.75;;;;;;;-142.37;100.00;59669.53;5092650;28;20032;-58
2023/02/25 07:26:45;;;;;;;3.10;0.20;;;;;;;-142.37;100.00;59669.53;5093887;28;20024;-59
2023/02/25 07:29:12;;;;;;;4.82;0.45;;;;;;;-142.37;100.00;59669.53;5092510;28;20062;-58
2023/02/25 07:31:38;;;;;;;2.70;0.20;;;;;;;-142.37;100.00;59669.53;5093673;28;20028;-58
2023/02/25 07:34:07;;;;;;;4.63;0.47;;;;;;;-142.37;100.00;59669.53;5092727;28;20434;-60
2023/02/25 07:36:36;;;;;;;3.05;0.17;;;;;;;-142.37;100.00;59669.53;5094034;28;20023;-59
2023/02/25 07:39:05;;;;;;;6.70;1.10;;;;;;;-142.37;100.00;59669.53;5092308;28;20028;-61
2023/02/25 07:41:31;;;;;;;3.95;1.02;;;;;;;-142.37;100.00;59669.53;5092157;28;20024;-59
2023/02/25 07:43:57;;;;;;;7.68;0.60;;;;;;;-142.37;100.00;59669.53;5093718;28;20031;-60
2023/02/25 07:46:23;;;;;;;2.10;0.60;;;;;;;-142.37;100.00;59669.53;5093480;28;20024;-60
2023/02/25 07:48:49;;;;;;;4.32;0.60;;;;;;;-142.37;100.00;59669.53;5092500;28;20036;-60
2023/02/25 07:51:18;;;;;;;3.97;0.55;;;;;;;-142.37;100.00;59669.53;5092364;28;20114;-61
2023/02/25 07:53:45;;;;;;;6.88;1.02;;;;;;;-142.37;100.00;59669.53;5093951;28;20408;-59
2023/02/25 07:56:12;;;;;;;1.85;0.45;;;;;;;-142.37;100.00;59669.53;5092430;28;20404;-59
2023/02/25 07:58:38;;;;;;;2.65;0.40;;;;;;;-142.37;100.00;59669.53;5093824;28;20062;-63
2023/02/25 08:01:28;;;;;;;2.15;0.25;;;;;;;-142.37;100.00;59669.53;5093654;28;20039;-59
2023/02/25 08:03:59;;;;;;;4.97;0.50;;;;;;;-142.37;100.00;59669.53;5085628;28;20081;-61
2023/02/25 08:06:25;;;;;;;2.20;0.20;;;;;;;-142.37;100.00;59669.53;5093113;28;20024;-59
2023/02/25 08:08:53;;;;;;;8.98;0.85;;;;;;;-142.37;100.00;59669.53;5093105;28;20020;-60
2023/02/25 08:11:21;;;;;;;2.30;0.43;;;;;;;-142.37;100.00;59669.53;5093063;28;20038;-61
2023/02/25 08:13:47;;;;;;;2.75;0.30;;;;;;;-142.37;100.00;59669.53;5092055;28;20109;-60
2023/02/25 08:16:16;;;;;;;3.70;0.55;;;;;;;-142.37;100.00;59669.53;5093018;28;20028;-61
2023/02/25 08:18:42;;;;;;;3.85;0.95;;;;;;;-142.37;100.00;59669.53;5092972;28;20059;-60
2023/02/25 08:21:13;;;;;;;5.15;0.52;;;;;;;-142.37;100.00;59669.53;5091557;28;20384;-63
2023/02/25 08:23:38;;;;;;;6.20;1.02;;;;;;;-142.37;100.00;59669.53;5092806;28;20030;-60
2023/02/25 08:26:05;;;;;;;1.55;0.20;;;;;;;-142.37;100.00;59669.53;5091795;28;20123;-62
2023/02/25 08:28:31;;;;;;;4.30;0.60;;;;;;;-142.37;100.00;59669.53;5091632;28;20024;-61
2023/02/25 08:30:58;;;;;;;5.10;0.73;;;;;;;-142.37;100.00;59669.53;5092495;28;20028;-63
2023/02/25 08:33:28;;;;;;;5.72;0.70;;;;;;;-142.37;100.00;59669.53;5091611;28;20047;-61
2023/02/25 08:35:55;;;;;;;2.80;0.70;;;;;;;-142.37;100.00;59669.53;5093139;28;20031;-61
2023/02/25 08:38:20;;;;;;;4.28;0.52;;;;;;;-142.37;100.00;59669.53;5092645;28;20028;-60
2023/02/25 08:40:46;;;;;;;4.18;0.70;;;;;;;-142.37;100.00;59669.53;5093442;28;20020;-59
2023/02/25 08:43:12;;;;;;;4.10;0.57;;;;;;;-142.37;100.00;59669.53;5092898;28;20514;-61
2023/02/25 08:45:40;;;;;;;3.90;0.85;;;;;;;-142.37;100.00;59669.53;5091805;28;20035;-61
2023/02/25 08:48:05;;;;;;;5.75;1.02;;;;;;;-142.37;100.00;59669.53;5091133;28;20031;-61
2023/02/25 08:50:31;;;;;;;5.43;0.85;;;;;;;-142.37;100.00;59669.53;5092773;28;20020;-60
2023/02/25 08:52:57;;;;;;;2.35;0.68;;;;;;;-142.37;100.00;59669.53;5090680;28;20382;-61
2023/02/25 08:55:24;;;;;;;4.57;0.80;;;;;;;-142.37;100.00;59669.53;5092821;28;20388;-63
2023/02/25 08:57:53;;;;;;;6.93;0.55;;;;;;;-142.37;100.00;59669.53;5092404;28;20056;-61
2023/02/25 09:00:20;;;;;;;3.72;0.68;;;;;;;-142.37;100.00;59669.53;5091083;28;20028;-61
2023/02/25 09:02:46;;;;;;;5.88;0.68;;;;;;;-142.37;100.00;59669.53;5090662;28;20036;-61
2023/02/25 09:05:11;;;;;;;7.60;1.42;;;;;;;-142.37;100.00;59669.53;5090752;28;20028;-61
2023/02/25 09:07:37;;;;;;;2.00;0.50;;;;;;;-142.37;100.00;59669.53;5090545;28;20499;-62
2023/02/25 09:10:08;;;;;;;5.40;0.75;;;;;;;-142.37;100.00;59669.53;5092327;28;20028;-61
2023/02/25 09:12:37;;;;;;;4.07;0.70;;;;;;;-142.37;100.00;59669.53;5092931;28;20024;-61
2023/02/25 09:15:03;;;;;;;3.28;0.60;;;;;;;-142.37;100.00;59669.53;5092393;28;20031;-61
2023/02/25 09:17:29;;;;;;;3.63;0.57;;;;;;;-142.37;100.00;59669.53;5093332;28;20052;-61
2023/02/25 09:19:57;;;;;;;2.38;0.70;;;;;;;-142.37;100.00;59669.53;5093727;28;20024;-62
2023/02/25 09:22:23;;;;;;;4.25;0.68;;;;;;;-142.37;100.00;59669.53;5092207;28;20044;-61
2023/02/25 09:24:48;;;;;;;4.65;0.82;;;;;;;-142.37;100.00;59669.53;5094600;28;20063;-60
2023/02/25 09:27:14;;;;;;;2.20;0.50;;;;;;;-142.37;100.00;59669.53;5096341;28;20027;-59
2023/02/25 09:29:41;;;;;;;3.83;0.80;;;;;;;-142.37;100.00;59669.53;5095668;28;20107;-61
2023/02/25 09:32:14;;;;;;;6.68;0.55;;;;;;;-142.37;100.00;59669.53;5094398;28;20031;-59
2023/02/25 09:34:40;;;;;;;3.53;0.57;;;;;;;-142.37;100.00;59669.53;5095856;28;20020;-61
2023/02/25 09:37:08;;;;;;;3.60;0.70;;;;;;;-142.37;100.00;59669.53;5094378;28;20042;-61
2023/02/25 09:39:34;;;;;;;5.95;0.80;;;;;;;-142.37;100.00;59669.53;5095733;28;20028;-59
2023/02/25 09:42:09;;;;;;;5.25;0.90;;;;;;;-142.37;100.00;59669.53;5095986;28;20115;-61
2023/02/25 09:44:37;;;;;;;;;;;;;;;-142.37;100.00;59669.53;5094755;28;20024;-62
2023/02/25 09:47:07;;;;;;;6.22;0.63;;;;;;;-142.37;100.00;59669.53;5094723;28;19912;-61
2023/02/25 09:49:45;;;;;;;2.45;0.60;;;;;;;-142.37;100.00;59669.53;5095251;28;20544;-60
2023/02/25 09:52:30;;;;;;;2.42;0.50;;;;;;;-142.37;100.00;59669.53;5095110;28;20039;-60
2023/02/25 09:55:29;;;;;;;5.68;1.25;;;;;;;-142.37;100.00;59669.53;5094933;28;20031;-61
2023/02/25 09:57:58;;;;;;;2.20;0.28;;;;;;;-142.37;100.00;59669.53;5091035;28;20040;-62
2023/02/25 10:00:24;;;;;;;3.65;0.95;;;;;;;-142.37;100.00;59669.53;5093767;28;20117;-60
2023/02/25 10:03:06;;;;;;;6.65;1.48;;;;;;;-142.37;100.00;59669.53;5093553;28;20105;-61
2023/02/25 10:05:53;;;;;;;4.88;1.15;;;;;;;-142.37;100.00;59669.53;5093467;28;20034;-61
2023/02/25 10:08:46;;;;;;;4.47;0.32;;;;;;;-142.37;100.00;59669.53;5095473;28;20039;-62
2023/02/25 10:11:29;;;;;;;2.08;0.28;;;;;;;-142.37;100.00;59669.53;5086950;28;20133;-61
2023/02/25 10:14:07;;;;;;;7.82;0.70;;;;;;;-142.37;100.00;59669.53;5093316;28;20024;-59
2023/02/25 10:16:58;;;;;;;3.13;0.52;;;;;;;-142.37;100.00;59669.53;5092870;28;20077;-61
2023/02/25 10:19:49;;;;;;;3.42;0.85;;;;;;;-142.37;100.00;59669.53;5092949;28;20064;-61
2023/02/25 10:22:16;;;;;;;3.78;0.77;;;;;;;-142.37;100.00;59669.53;5093015;28;20488;-63
2023/02/25 10:25:13;;;;;;;4.43;0.35;;;;;;;-142.37;100.00;59669.53;5094724;28;20031;-59
2023/02/25 10:28:01;;;;;;;3.85;0.55;;;;;;;-142.37;100.00;59669.53;5092547;28;20044;-62
2023/02/25 10:30:56;;;;;;;3.25;0.55;;;;;;;-142.37;100.00;59669.53;5094959;28;20024;-62
2023/02/25 10:33:24;;;;;;;1.27;0.73;;;;;;;-142.37;100.00;59669.53;5094124;28;20024;-61
2023/02/25 10:36:13;;;;;;;8.13;1.27;;;;;;;-142.37;100.00;59669.53;5091983;28;20035;-61
2023/02/25 10:38:51;;;;;;;5.07;0.98;;;;;;;-142.37;100.00;59669.53;5079693;28;20028;-61
2023/02/25 10:41:21;;;;;;;7.10;0.93;;;;;;;-142.37;100.00;59669.53;5092572;28;20093;-62
2023/02/25 10:43:49;;;;;;;4.25;0.70;;;;;;;-142.37;100.00;59669.53;5094140;28;20027;-60
2023/02/25 10:46:17;;;;;;;6.57;1.65;;;;;;;-142.37;100.00;59669.53;5093869;28;20030;-60
2023/02/25 10:48:58;;;;;;;5.05;0.57;;;;;;;-142.37;100.00;59669.53;5092913;28;20039;-59
2023/02/25 10:51:27;;;;;;;2.95;0.93;;;;;;;-142.37;100.00;59669.53;5093740;28;20024;-62
2023/02/25 10:53:55;;;;;;;2.35;0.60;;;;;;;-142.37;100.00;59669.53;5092496;28;20028;-62
2023/02/25 10:56:23;;;;;;;1.10;0.43;;;;;;;-142.37;100.00;59669.53;5092627;28;20036;-60
2023/02/25 10:59:05;;;;;;;5.30;1.08;;;;;;;-142.37;100.00;59669.53;5093723;28;20078;-61
2023/02/25 11:01:41;;;;;;;2.20;0.60;;;;;;;-142.37;100.00;59669.53;5093464;28;20036;-60
2023/02/25 11:04:14;;;;;;;;;;;;;;;-142.37;100.00;59669.53;5092636;28;20063;-62
2023/02/25 11:06:42;;;;;;;5.43;0.55;;;;;;;-142.37;100.00;59669.53;5092076;28;19919;-59
2023/02/25 11:09:20;;;;;;;2.50;0.63;;;;;;;-142.37;100.00;59669.53;5092000;28;20032;-60
2023/02/25 11:11:57;;;;;;;4.72;1.10;;;;;;;-142.37;100.00;59669.53;5093363;28;20024;-63
2023/02/25 11:14:32;;;;;;;5.25;0.73;;;;;;;-142.37;100.00;59669.53;5091827;28;20035;-61
2023/02/25 11:17:21;;;;;;;2.22;0.40;;;;;;;-142.37;100.00;59669.53;5091742;28;20047;-60
2023/02/25 11:19:58;;;;;;;3.10;0.45;;;;;;;-142.37;100.00;59669.53;5095114;28;20123;-61
2023/02/25 11:22:34;;;;;;;3.15;0.68;;;;;;;-142.37;100.00;59669.53;5092871;28;20044;-61